createdAt,value
2017-11-03T00:04:35.993Z,100471
2017-11-03T00:09:39.206Z,100475
2017-11-03T00:14:42.412Z,100471
2017-11-03T00:19:45.633Z,100476
2017-11-03T00:24:48.830Z,100484
2017-11-03T00:29:52.010Z,100474
2017-11-03T00:34:55.202Z,100477
2017-11-03T00:39:58.480Z,100478
2017-11-03T00:45:02.442Z,100482
2017-11-03T00:50:05.655Z,100483
2017-11-03T00:55:08.932Z,100470
2017-11-03T01:00:12.882Z,100477
2017-11-03T01:05:16.058Z,100475
2017-11-03T01:10:20.067Z,100474
2017-11-03T01:15:23.395Z,100476
2017-11-03T01:20:27.346Z,100478
2017-11-03T01:25:30.549Z,100472
2017-11-03T01:30:33.750Z,100472
2017-11-03T01:35:36.963Z,100471
2017-11-03T01:40:40.127Z,100472
2017-11-03T01:45:44.082Z,100479
2017-11-03T01:50:47.270Z,100480
2017-11-03T01:55:51.243Z,100469
2017-11-03T02:00:54.458Z,100471
2017-11-03T02:05:57.639Z,100476
2017-11-03T02:11:00.826Z,100480
2017-11-03T02:16:04.034Z,100476
2017-11-03T02:21:07.299Z,100476
2017-11-03T02:26:10.492Z,100476
2017-11-03T02:31:13.673Z,100477
2017-11-03T02:36:16.883Z,100475
2017-11-03T02:41:20.058Z,100480
2017-11-03T02:46:23.272Z,100469
2017-11-03T02:51:26.448Z,100476
2017-11-03T02:56:29.654Z,100469
2017-11-03T03:01:32.857Z,100476
2017-11-03T03:06:36.054Z,100474
2017-11-03T03:11:39.254Z,100471
2017-11-03T03:16:42.437Z,100482
2017-11-03T03:21:45.626Z,100491
2017-11-03T03:26:48.790Z,100488
2017-11-03T03:31:51.967Z,100492
2017-11-03T03:36:55.162Z,100498
2017-11-03T03:41:58.329Z,100497
2017-11-03T03:47:01.486Z,100502
2017-11-03T03:52:04.675Z,100493
2017-11-03T03:57:07.826Z,100507
2017-11-03T04:02:11.822Z,100504
2017-11-03T04:07:15.030Z,100506
2017-11-03T04:12:18.207Z,100509
2017-11-03T04:17:21.415Z,100503
2017-11-03T04:22:24.601Z,100495
2017-11-03T04:27:27.781Z,100500
2017-11-03T04:32:30.937Z,100509
2017-11-03T04:37:34.160Z,100500
2017-11-03T04:42:37.363Z,100497
2017-11-03T04:47:40.545Z,100488
2017-11-03T04:52:43.710Z,100495
2017-11-03T04:57:46.896Z,100495
2017-11-03T05:02:50.186Z,100494
2017-11-03T05:07:53.383Z,100499
2017-11-03T05:12:56.562Z,100502
2017-11-03T05:17:59.762Z,100494
2017-11-03T05:23:04.376Z,100508
2017-11-03T05:28:07.562Z,100500
2017-11-03T05:33:10.740Z,100506
2017-11-03T05:38:14.063Z,100509
2017-11-03T05:43:17.262Z,100500
2017-11-03T05:48:20.442Z,100496
2017-11-03T05:53:23.618Z,100503
2017-11-03T05:58:26.837Z,100504
2017-11-03T06:03:30.817Z,100510
2017-11-03T06:08:34.050Z,100504
2017-11-03T06:13:37.240Z,100516
2017-11-03T06:18:40.435Z,100520
2017-11-03T06:23:43.629Z,100524
2017-11-03T06:28:48.656Z,100520
2017-11-03T06:33:51.848Z,100533
2017-11-03T06:38:55.782Z,100532
2017-11-03T06:43:59.943Z,100531
2017-11-03T06:49:03.138Z,100538
2017-11-03T06:54:06.301Z,100547
2017-11-03T06:59:09.554Z,100550
2017-11-03T07:04:12.786Z,100553
2017-11-03T07:09:15.962Z,100556
2017-11-03T07:14:19.161Z,100557
2017-11-03T07:19:22.353Z,100552
2017-11-03T07:24:26.307Z,100566
2017-11-03T07:29:30.362Z,100560
2017-11-03T07:34:33.561Z,100572
2017-11-03T07:39:36.767Z,100565
2017-11-03T07:44:39.950Z,100560
2017-11-03T07:49:43.193Z,100561
2017-11-03T07:54:46.387Z,100563
2017-11-03T07:59:49.602Z,100552
2017-11-03T08:04:52.911Z,100563
2017-11-03T08:09:56.127Z,100558
2017-11-03T08:14:59.309Z,100558
2017-11-03T08:20:02.519Z,100564
2017-11-03T08:25:05.742Z,100562
2017-11-03T08:30:09.000Z,100564
2017-11-03T08:35:12.186Z,100568
2017-11-03T08:40:16.160Z,100552
2017-11-03T08:45:19.381Z,100550
2017-11-03T08:50:22.572Z,100556
2017-11-03T08:55:25.810Z,100547
2017-11-03T09:00:28.988Z,100531
2017-11-03T09:05:32.178Z,100549
2017-11-03T09:10:35.373Z,100554
2017-11-03T09:15:38.734Z,100556
2017-11-03T09:20:41.903Z,100559
2017-11-03T09:25:45.095Z,100565
2017-11-03T09:30:48.373Z,100565
2017-11-03T09:35:52.439Z,100561
2017-11-03T09:40:55.658Z,100562
2017-11-03T09:45:59.009Z,100548
2017-11-03T09:51:03.074Z,100553
2017-11-03T09:56:06.285Z,100558
2017-11-03T10:01:09.493Z,100545
2017-11-03T10:06:12.705Z,100550
2017-11-03T10:11:15.899Z,100550
2017-11-03T10:16:19.242Z,100547
2017-11-03T10:21:22.419Z,100540
2017-11-03T10:26:25.607Z,100547
2017-11-03T10:31:28.799Z,100539
2017-11-03T10:36:32.791Z,100539
2017-11-03T10:41:35.997Z,100544
2017-11-03T10:46:39.199Z,100528
2017-11-03T10:51:42.942Z,100505
2017-11-03T10:56:46.157Z,100509
2017-11-03T11:01:49.325Z,100498
2017-11-03T11:06:52.549Z,100507
2017-11-03T11:11:55.799Z,100507
2017-11-03T11:16:59.005Z,100505
2017-11-03T11:22:02.182Z,100495
2017-11-03T11:27:06.165Z,100485
2017-11-03T11:32:09.381Z,100483
2017-11-03T11:37:12.601Z,100477
2017-11-03T11:42:15.767Z,100470
2017-11-03T11:47:19.053Z,100475
2017-11-03T11:52:22.986Z,100470
2017-11-03T11:57:26.246Z,100470
2017-11-03T12:02:29.443Z,100471
2017-11-03T12:07:32.637Z,100459
2017-11-03T12:12:35.809Z,100456
2017-11-03T12:17:39.017Z,100455
2017-11-03T12:22:42.285Z,100451
2017-11-03T12:27:45.495Z,100440
2017-11-03T12:32:48.667Z,100442
2017-11-03T12:37:51.873Z,100438
2017-11-03T12:42:55.083Z,100431
2017-11-03T12:47:58.275Z,100429
2017-11-03T12:53:01.455Z,100432
2017-11-03T12:58:04.695Z,100417
2017-11-03T13:03:07.882Z,100421
2017-11-03T13:08:11.147Z,100407
2017-11-03T13:13:15.099Z,100408
2017-11-03T13:18:18.341Z,100408
2017-11-03T13:23:21.586Z,100410
2017-11-03T13:28:24.785Z,100405
2017-11-03T13:33:27.966Z,100402
2017-11-03T13:38:31.157Z,100400
2017-11-03T13:43:34.347Z,100395
2017-11-03T13:48:37.569Z,100379
2017-11-03T13:53:40.770Z,100381
2017-11-03T13:58:43.986Z,100364
2017-11-03T14:03:47.291Z,100353
2017-11-03T14:08:50.494Z,100347
2017-11-03T14:13:53.691Z,100348
2017-11-03T14:18:56.918Z,100350
2017-11-03T14:24:00.127Z,100346
2017-11-03T14:29:03.327Z,100342
2017-11-03T14:34:06.538Z,100341
2017-11-03T14:39:09.826Z,100338
2017-11-03T14:44:13.036Z,100320
2017-11-03T14:49:16.261Z,100326
2017-11-03T14:54:19.472Z,100322
2017-11-03T14:59:22.748Z,100320
2017-11-03T15:04:26.408Z,100313
2017-11-03T15:09:29.655Z,100317
2017-11-03T15:14:32.854Z,100319
2017-11-03T15:19:36.782Z,100320
2017-11-03T15:24:39.967Z,100305
2017-11-03T15:29:43.943Z,100311
2017-11-03T15:34:47.150Z,100309
2017-11-03T15:39:50.498Z,100306
2017-11-03T15:44:53.889Z,100300
2017-11-03T15:49:57.117Z,100301
2017-11-03T15:55:00.518Z,100299
2017-11-03T16:00:03.750Z,100304
2017-11-03T16:05:07.714Z,100294
2017-11-03T16:10:11.006Z,100295
2017-11-03T16:15:14.218Z,100301
2017-11-03T16:20:17.483Z,100296
2017-11-03T16:25:21.450Z,100299
2017-11-03T16:30:24.662Z,100293
2017-11-03T16:35:27.954Z,100275
2017-11-03T16:40:31.153Z,100274
2017-11-03T16:45:34.356Z,100275
2017-11-03T16:50:38.334Z,100269
2017-11-03T16:55:41.511Z,100260
2017-11-03T17:00:44.695Z,100269
2017-11-03T17:05:47.982Z,100271
2017-11-03T17:10:51.921Z,100270
2017-11-03T17:15:55.120Z,100275
2017-11-03T17:20:59.176Z,100269
2017-11-03T17:26:02.350Z,100267
2017-11-03T17:31:06.312Z,100264
2017-11-03T17:36:09.563Z,100263
2017-11-03T17:41:12.812Z,100251
2017-11-03T17:46:16.031Z,100260
2017-11-03T17:51:19.277Z,100253
2017-11-03T17:56:22.494Z,100255
2017-11-03T18:01:25.721Z,100246
2017-11-03T18:06:28.967Z,100245
2017-11-03T18:11:32.115Z,100236
2017-11-03T18:16:36.050Z,100231
2017-11-03T18:21:40.080Z,100239
2017-11-03T18:26:44.043Z,100236
2017-11-03T18:31:47.311Z,100232
2017-11-03T18:36:50.522Z,100238
2017-11-03T18:41:54.607Z,100224
2017-11-03T18:46:57.828Z,100229
2017-11-03T18:52:01.167Z,100232
2017-11-03T18:57:04.349Z,100230
2017-11-03T19:02:18.191Z,100222
2017-11-03T19:07:21.458Z,100221
2017-11-03T19:12:24.698Z,100216
2017-11-03T19:17:27.962Z,100229
2017-11-03T19:22:31.169Z,100213
2017-11-03T19:27:34.418Z,100210
2017-11-03T19:32:37.631Z,100225
2017-11-03T19:37:40.935Z,100222
2017-11-03T19:42:44.159Z,100233
2017-11-03T19:47:47.526Z,100228
2017-11-03T19:52:50.735Z,100229
2017-11-03T19:57:54.033Z,100219
2017-11-03T20:02:57.368Z,100207
2017-11-03T20:08:00.629Z,100213
2017-11-03T20:13:03.839Z,100212
2017-11-03T20:18:07.807Z,100212
2017-11-03T20:23:11.039Z,100198
2017-11-03T20:28:14.355Z,100205
2017-11-03T20:33:17.614Z,100201
2017-11-03T20:38:20.830Z,100198
2017-11-03T20:43:24.108Z,100200
2017-11-03T20:48:27.289Z,100200
2017-11-03T20:53:31.871Z,100202
2017-11-03T20:58:35.157Z,100190
2017-11-03T21:03:38.609Z,100191
2017-11-03T21:08:41.841Z,100182
2017-11-03T21:13:45.934Z,100184
2017-11-03T21:18:49.143Z,100172
2017-11-03T21:23:52.484Z,100164
2017-11-03T21:28:55.666Z,100165
2017-11-03T21:33:58.850Z,100155
2017-11-03T21:39:02.050Z,100158
2017-11-03T21:44:05.238Z,100143
2017-11-03T21:49:08.430Z,100145
2017-11-03T21:54:11.641Z,100148
2017-11-03T21:59:14.867Z,100153
2017-11-03T22:04:18.161Z,100134
2017-11-03T22:09:21.362Z,100135
2017-11-03T22:14:25.348Z,100120
2017-11-03T22:19:28.537Z,100123
2017-11-03T22:24:31.723Z,100124
2017-11-03T22:29:34.917Z,100126
2017-11-03T22:34:38.250Z,100131
2017-11-03T22:39:41.478Z,100131
2017-11-03T22:44:44.891Z,100115
2017-11-03T22:49:48.120Z,100127
2017-11-03T22:54:52.183Z,100111
2017-11-03T22:59:55.384Z,100119
2017-11-03T23:04:58.574Z,100111
2017-11-03T23:10:01.778Z,100116
2017-11-03T23:15:04.999Z,100116
2017-11-03T23:20:08.233Z,100112
2017-11-03T23:25:11.426Z,100109
2017-11-03T23:30:14.644Z,100109
2017-11-03T23:35:17.813Z,100105
2017-11-03T23:40:21.010Z,100097
2017-11-03T23:45:24.214Z,100089
2017-11-03T23:50:27.404Z,100091
2017-11-03T23:55:31.409Z,100084
